Time;durP1;ratioP1;P1;durP2;ratioP2;P2;SDS_P1;SDS_P2;PMS_P1;PMS_P2;Temp;Humidity;BMP_temperature;BMP_pressure;BME280_temperature;BME280_humidity;BME280_pressure;Samples;Min_cycle;Max_cycle;Signal;HPM_P1;HPM_P2
2022/11/12 00:00:01;;;;;;;;;;;;;;;;;;5031120;28;19909;-63
2022/11/12 00:02:27;;;;;;;;;;;;;;;;;;5031077;28;19954;-63
2022/11/12 00:04:52;;;;;;;;;;;;;;;;;;5014254;28;19909;-62
2022/11/12 00:07:18;;;;;;;;;;;;;;;;;;5012589;28;20526;-63
2022/11/12 00:09:44;;;;;;;;;;;;;;;;;;5011402;28;19913;-62
2022/11/12 00:12:10;;;;;;;;;;;;;;;;;;5011254;28;20015;-63
2022/11/12 00:14:36;;;;;;;;;;;;;;;;;;5012098;28;19910;-64
2022/11/12 00:17:02;;;;;;;;;;;;;;;;;;5011937;28;19913;-62
2022/11/12 00:19:28;;;;;;;;;;;;;;;;;;5011121;28;19976;-64
2022/11/12 00:21:54;;;;;;;;;;;;;;;;;;5011699;28;19910;-63
2022/11/12 00:24:19;;;;;;;;;;;;;;;;;;5012304;28;19940;-62
2022/11/12 00:26:45;;;;;;;;;;;;;;;;;;5011285;28;19929;-62
2022/11/12 00:29:11;;;;;;;;;;;;;;;;;;5025883;28;19924;-63
2022/11/12 00:31:37;;;;;;;;;;;;;;;;;;5029855;28;19923;-63
2022/11/12 00:34:03;;;;;;;;;;;;;;;;;;5030154;28;19909;-63
2022/11/12 00:36:29;;;;;;;;;;;;;;;;;;5030168;28;20289;-63
2022/11/12 00:38:55;;;;;;;;;;;;;;;;;;5026997;28;19915;-62
2022/11/12 00:41:21;;;;;;;;;;;;;;;;;;5029788;28;20393;-63
2022/11/12 00:43:47;;;;;;;;;;;;;;;;;;5017397;28;20286;-64
2022/11/12 00:46:12;;;;;;;;;;;;;;;;;;5004429;28;19925;-63
2022/11/12 00:48:38;;;;;;;;;;;;;;;;;;5010722;28;19913;-63
2022/11/12 00:51:04;;;;;;;;;;;;;;;;;;5010725;28;20004;-62
2022/11/12 00:53:30;;;;;;;;;;;;;;;;;;5010715;28;19913;-63
2022/11/12 00:55:56;;;;;;;;;;;;;;;;;;5010316;28;19914;-63
2022/11/12 00:58:22;;;;;;;;;;;;;;;;;;5011260;28;19913;-62
2022/11/12 01:00:48;;;;;;;;;;;;;;;;;;5010884;28;20358;-63
2022/11/12 01:03:14;;;;;;;;;;;;;;;;;;5010611;28;19909;-63
2022/11/12 01:05:39;;;;;;;;;;;;;;;;;;5011008;28;20446;-63
2022/11/12 01:08:05;;;;;;;;;;;;;;;;;;5011182;28;19910;-63
2022/11/12 01:10:31;;;;;;;;;;;;;;;;;;5010792;28;19932;-62
2022/11/12 01:12:57;;;;;;;;;;;;;;;;;;5010925;28;20125;-63
2022/11/12 01:15:23;;;;;;;;;;;;;;;;;;5013841;28;19917;-64
2022/11/12 01:17:49;;;;;;;;;;;;;;;;;;5029613;28;19913;-62
2022/11/12 01:20:15;;;;;;;;;;;;;;;;;;5029049;28;19925;-63
2022/11/12 01:22:41;;;;;;;;;;;;;;;;;;5029507;28;19916;-63
2022/11/12 01:25:06;;;;;;;;;;;;;;;;;;5019674;28;20004;-63
2022/11/12 01:27:32;;;;;;;;;;;;;;;;;;5010395;28;20378;-62
2022/11/12 01:29:58;;;;;;;;;;;;;;;;;;5011283;28;19914;-63
2022/11/12 01:32:24;;;;;;;;;;;;;;;;;;5010575;28;20394;-64
2022/11/12 01:34:50;;;;;;;;;;;;;;;;;;5024013;28;19917;-64
2022/11/12 01:37:16;;;;;;;;;;;;;;;;;;5029433;28;20566;-63
2022/11/12 01:39:42;;;;;;;;;;;;;;;;;;5021785;28;19909;-64
2022/11/12 01:42:08;;;;;;;;;;;;;;;;;;5026935;28;20399;-63
2022/11/12 01:44:34;;;;;;;;;;;;;;;;;;5016854;28;19948;-65
2022/11/12 01:47:00;;;;;;;;;;;;;;;;;;5010411;28;20669;-62
2022/11/12 01:49:26;;;;;;;;;;;;;;;;;;5029417;28;19909;-65
2022/11/12 01:51:51;;;;;;;;;;;;;;;;;;5029509;28;19983;-65
2022/11/12 01:54:17;;;;;;;;;;;;;;;;;;5028736;28;19920;-64
2022/11/12 01:56:43;;;;;;;;;;;;;;;;;;5029117;28;19996;-65
2022/11/12 01:59:09;;;;;;;;;;;;;;;;;;5029750;28;19909;-64
2022/11/12 02:01:35;;;;;;;;;;;;;;;;;;5029127;28;20301;-64
2022/11/12 02:04:01;;;;;;;;;;;;;;;;;;5029155;28;20392;-63
2022/11/12 02:06:27;;;;;;;;;;;;;;;;;;5029085;28;20012;-64
2022/11/12 02:08:53;;;;;;;;;;;;;;;;;;5028728;28;19913;-65
2022/11/12 02:11:18;;;;;;;;;;;;;;;;;;5026981;28;19913;-65
2022/11/12 02:13:57;;;;;;;;;;;;;;;;;;5009796;28;19913;-66
2022/11/12 02:16:23;;;;;;;;;;;;;;;;;;5009710;28;20363;-64
2022/11/12 02:18:48;;;;;;;;;;;;;;;;;;5009574;28;19921;-64
2022/11/12 02:21:14;;;;;;;;;;;;;;;;;;5009887;28;19910;-65
2022/11/12 02:23:40;;;;;;;;;;;;;;;;;;5009449;28;19914;-65
2022/11/12 02:26:06;;;;;;;;;;;;;;;;;;5009656;28;20671;-64
2022/11/12 02:28:32;;;;;;;;;;;;;;;;;;5019905;28;19917;-64
2022/11/12 02:30:58;;;;;;;;;;;;;;;;;;5028766;28;20271;-65
2022/11/12 02:33:24;;;;;;;;;;;;;;;;;;5026301;28;19939;-65
2022/11/12 02:35:50;;;;;;;;;;;;;;;;;;5028975;28;20567;-65
2022/11/12 02:38:15;;;;;;;;;;;;;;;;;;5028509;28;19935;-64
2022/11/12 02:40:41;;;;;;;;;;;;;;;;;;5020434;28;19917;-64
2022/11/12 02:43:07;;;;;;;;;;;;;;;;;;5009666;28;20366;-63
2022/11/12 02:45:33;;;;;;;;;;;;;;;;;;5011443;28;19910;-64
2022/11/12 02:47:59;;;;;;;;;;;;;;;;;;5028169;28;20419;-65
2022/11/12 02:50:25;;;;;;;;;;;;;;;;;;5010038;28;19986;-65
2022/11/12 02:52:51;;;;;;;;;;;;;;;;;;5009085;28;19918;-65
2022/11/12 02:55:17;;;;;;;;;;;;;;;;;;5013090;28;19910;-65
2022/11/12 02:57:43;;;;;;;;;;;;;;;;;;5013614;28;20000;-64
2022/11/12 03:00:09;;;;;;;;;;;;;;;;;;5013519;28;20363;-65
2022/11/12 03:02:41;;;;;;;;;;;;;;;;;;5013593;28;19906;-64
2022/11/12 03:05:07;;;;;;;;;;;;;;;;;;5013372;28;20401;-64
2022/11/12 03:07:33;;;;;;;;;;;;;;;;;;5026306;28;19917;-64
2022/11/12 03:09:59;;;;;;;;;;;;;;;;;;5032991;28;20012;-63
2022/11/12 03:12:24;;;;;;;;;;;;;;;;;;5032351;28;19975;-64
2022/11/12 03:14:50;;;;;;;;;;;;;;;;;;5019666;28;20330;-63
2022/11/12 03:17:16;;;;;;;;;;;;;;;;;;5013441;28;19910;-63
2022/11/12 03:19:42;;;;;;;;;;;;;;;;;;5025577;28;20381;-63
2022/11/12 03:22:08;;;;;;;;;;;;;;;;;;5031583;28;19996;-64
2022/11/12 03:24:34;;;;;;;;;;;;;;;;;;5031871;28;20343;-64
2022/11/12 03:27:00;;;;;;;;;;;;;;;;;;5031610;28;19913;-63
2022/11/12 03:29:26;;;;;;;;;;;;;;;;;;5031871;28;20437;-64
2022/11/12 03:31:51;;;;;;;;;;;;;;;;;;5032507;28;19967;-63
2022/11/12 03:34:17;;;;;;;;;;;;;;;;;;5031542;28;19967;-63
2022/11/12 03:36:43;;;;;;;;;;;;;;;;;;5031361;28;19909;-64
2022/11/12 03:39:09;;;;;;;;;;;;;;;;;;5029483;28;19996;-64
2022/11/12 03:41:35;;;;;;;;;;;;;;;;;;5031535;28;19913;-63
2022/11/12 03:44:01;;;;;;;;;;;;;;;;;;5031551;28;19936;-64
2022/11/12 03:46:27;;;;;;;;;;;;;;;;;;5015850;28;19963;-64
2022/11/12 03:48:53;;;;;;;;;;;;;;;;;;5021073;28;19913;-63
2022/11/12 03:51:20;;;;;;;;;;;;;;;;;;5027014;28;19928;-64
2022/11/12 03:53:45;;;;;;;;;;;;;;;;;;5031090;28;19913;-64
2022/11/12 03:56:11;;;;;;;;;;;;;;;;;;5030962;28;20043;-64
2022/11/12 03:58:37;;;;;;;;;;;;;;;;;;5031524;28;20288;-61
2022/11/12 04:01:03;;;;;;;;;;;;;;;;;;5030089;28;19944;-63
2022/11/12 04:03:29;;;;;;;;;;;;;;;;;;5030885;28;20373;-63
2022/11/12 04:08:39;;;;;;;;;;;;;;;;;;5030819;28;19954;-64
2022/11/12 04:11:05;;;;;;;;;;;;;;;;;;5030738;28;19914;-64
2022/11/12 04:13:31;;;;;;;;;;;;;;;;;;5031097;28;19917;-64
2022/11/12 04:26:21;;;;;;;;;;;;;;;;;;5030522;28;19920;-63
2022/11/12 04:26:57;;;;;;;;;;;;;;;;;;5030432;28;19960;-63
2022/11/12 04:32:07;;;;;;;;;;;;;;;;;;5030210;28;19928;-63
2022/11/12 04:34:33;;;;;;;;;;;;;;;;;;5030395;28;19913;-63
2022/11/12 04:36:59;;;;;;;;;;;;;;;;;;5031240;28;19924;-62
2022/11/12 04:39:25;;;;;;;;;;;;;;;;;;5010713;28;19913;-63
2022/11/12 04:47:21;;;;;;;;;;;;;;;;;;5011154;28;19921;-64
2022/11/12 04:49:46;;;;;;;;;;;;;;;;;;5011005;28;19909;-64
2022/11/12 04:52:12;;;;;;;;;;;;;;;;;;5011016;28;19918;-64
2022/11/12 04:54:38;;;;;;;;;;;;;;;;;;5011155;28;19920;-64
2022/11/12 04:57:04;;;;;;;;;;;;;;;;;;5011232;28;20433;-63
2022/11/12 04:59:30;;;;;;;;;;;;;;;;;;5011159;28;19967;-64
2022/11/12 05:01:56;;;;;;;;;;;;;;;;;;5010553;28;19909;-63
2022/11/12 05:04:22;;;;;;;;;;;;;;;;;;5010774;28;19913;-63
2022/11/12 05:06:51;;;;;;;;;;;;;;;;;;5011574;28;20020;-62
2022/11/12 05:09:17;;;;;;;;;;;;;;;;;;5010728;28;19909;-63
2022/11/12 05:11:42;;;;;;;;;;;;;;;;;;5012128;28;19917;-64
2022/11/12 05:14:08;;;;;;;;;;;;;;;;;;5029404;28;19917;-63
2022/11/12 05:16:34;;;;;;;;;;;;;;;;;;5029181;28;19935;-63
2022/11/12 05:19:00;;;;;;;;;;;;;;;;;;5028749;28;20672;-63
2022/11/12 05:24:11;;;;;;;;;;;;;;;;;;5027572;28;20632;-62
2022/11/12 05:26:36;;;;;;;;;;;;;;;;;;5010658;28;19913;-63
2022/11/12 05:29:02;;;;;;;;;;;;;;;;;;5011091;28;19994;-62
2022/11/12 05:31:28;;;;;;;;;;;;;;;;;;5009969;28;19917;-62
2022/11/12 05:33:54;;;;;;;;;;;;;;;;;;5010457;28;20334;-63
2022/11/12 05:36:20;;;;;;;;;;;;;;;;;;5010264;28;20024;-64
2022/11/12 05:38:46;;;;;;;;;;;;;;;;;;5011650;28;19939;-64
2022/11/12 05:41:12;;;;;;;;;;;;;;;;;;5029198;28;19913;-64
2022/11/12 05:43:38;;;;;;;;;;;;;;;;;;5029545;28;19964;-64
2022/11/12 05:46:04;;;;;;;;;;;;;;;;;;5029026;28;19913;-63
2022/11/12 05:48:30;;;;;;;;;;;;;;;;;;5029194;28;19952;-64
2022/11/12 05:50:55;;;;;;;;;;;;;;;;;;5028951;28;19913;-64
2022/11/12 05:53:21;;;;;;;;;;;;;;;;;;5022787;28;19979;-62
2022/11/12 05:55:47;;;;;;;;;;;;;;;;;;5016501;28;20004;-63
2022/11/12 05:58:13;;;;;;;;;;;;;;;;;;5010170;28;19913;-64
2022/11/12 06:00:39;;;;;;;;;;;;;;;;;;5009766;28;20412;-63
2022/11/12 06:03:05;;;;;;;;;;;;;;;;;;5010024;28;19909;-64
2022/11/12 06:05:31;;;;;;;;;;;;;;;;;;5009869;28;20350;-63
2022/11/12 06:07:57;;;;;;;;;;;;;;;;;;5010078;28;19949;-63
2022/11/12 06:10:22;;;;;;;;;;;;;;;;;;5010218;28;20309;-63
2022/11/12 06:12:48;;;;;;;;;;;;;;;;;;5010016;28;19932;-64
2022/11/12 06:15:14;;;;;;;;;;;;;;;;;;5009678;28;19917;-64
2022/11/12 06:17:40;;;;;;;;;;;;;;;;;;5009972;28;19968;-64
2022/11/12 06:20:06;;;;;;;;;;;;;;;;;;5013105;28;19999;-63
2022/11/12 06:22:32;;;;;;;;;;;;;;;;;;5028731;28;20343;-63
2022/11/12 06:24:58;;;;;;;;;;;;;;;;;;5028396;28;19914;-63
2022/11/12 06:27:24;;;;;;;;;;;;;;;;;;5013400;28;20003;-62
2022/11/12 06:29:50;;;;;;;;;;;;;;;;;;5012383;28;19917;-63
2022/11/12 06:32:15;;;;;;;;;;;;;;;;;;5013682;28;19924;-63
2022/11/12 06:34:41;;;;;;;;;;;;;;;;;;5013926;28;19963;-63
2022/11/12 06:37:07;;;;;;;;;;;;;;;;;;5013141;28;19925;-62
2022/11/12 06:39:33;;;;;;;;;;;;;;;;;;5003346;28;20007;-63
2022/11/12 06:42:00;;;;;;;;;;;;;;;;;;5032794;28;19909;-62
2022/11/12 06:44:26;;;;;;;;;;;;;;;;;;5014954;28;20004;-64
2022/11/12 06:46:52;;;;;;;;;;;;;;;;;;5021008;28;19996;-62
2022/11/12 06:49:18;;;;;;;;;;;;;;;;;;5032693;28;20285;-63
2022/11/12 06:51:44;;;;;;;;;;;;;;;;;;5025024;28;19917;-63
2022/11/12 06:54:10;;;;;;;;;;;;;;;;;;5013159;28;19979;-64
2022/11/12 06:56:36;;;;;;;;;;;;;;;;;;5013260;28;19914;-63
2022/11/12 06:59:02;;;;;;;;;;;;;;;;;;5032093;28;19913;-64
2022/11/12 07:01:27;;;;;;;;;;;;;;;;;;5031802;28;19944;-63
2022/11/12 07:03:53;;;;;;;;;;;;;;;;;;5032115;28;19909;-63
2022/11/12 07:06:19;;;;;;;;;;;;;;;;;;5031421;28;19924;-63
2022/11/12 07:08:45;;;;;;;;;;;;;;;;;;5012855;28;20267;-62
2022/11/12 07:11:11;;;;;;;;;;;;;;;;;;5012791;28;19920;-62
2022/11/12 07:13:37;;;;;;;;;;;;;;;;;;5012522;28;19917;-62
2022/11/12 07:16:03;;;;;;;;;;;;;;;;;;5023799;28;19921;-63
2022/11/12 07:18:29;;;;;;;;;;;;;;;;;;5029864;28;20345;-63
2022/11/12 07:20:55;;;;;;;;;;;;;;;;;;5012816;28;20365;-64
2022/11/12 07:23:20;;;;;;;;;;;;;;;;;;5022707;28;20239;-63
2022/11/12 07:25:46;;;;;;;;;;;;;;;;;;5031613;28;19967;-63
2022/11/12 07:28:12;;;;;;;;;;;;;;;;;;5029668;28;20372;-64
2022/11/12 07:30:38;;;;;;;;;;;;;;;;;;5012913;28;19921;-63
2022/11/12 07:33:04;;;;;;;;;;;;;;;;;;5012470;28;19925;-62
2022/11/12 07:35:30;;;;;;;;;;;;;;;;;;5012343;28;19956;-62
2022/11/12 07:37:56;;;;;;;;;;;;;;;;;;5012125;28;20373;-63
2022/11/12 07:40:22;;;;;;;;;;;;;;;;;;5026042;28;20042;-62
2022/11/12 07:42:48;;;;;;;;;;;;;;;;;;5031152;28;19920;-63
2022/11/12 07:45:14;;;;;;;;;;;;;;;;;;5031200;28;20419;-63
2022/11/12 07:47:40;;;;;;;;;;;;;;;;;;5030934;28;19913;-63
2022/11/12 07:50:09;;;;;;;;;;;;;;;;;;5031372;28;20381;-63
2022/11/12 07:52:35;;;;;;;;;;;;;;;;;;5030770;28;20419;-63
2022/11/12 07:55:00;;;;;;;;;;;;;;;;;;5030859;28;19968;-63
2022/11/12 07:57:26;;;;;;;;;;;;;;;;;;5030211;28;19913;-63
2022/11/12 07:59:52;;;;;;;;;;;;;;;;;;5013251;28;20003;-63
2022/11/12 08:02:18;;;;;;;;;;;;;;;;;;5030805;28;19909;-62
2022/11/12 08:04:44;;;;;;;;;;;;;;;;;;5030522;28;20382;-62
2022/11/12 08:07:10;;;;;;;;;;;;;;;;;;5021451;28;19952;-63
2022/11/12 08:09:36;;;;;;;;;;;;;;;;;;5011571;28;19995;-63
2022/11/12 08:12:02;;;;;;;;;;;;;;;;;;5010827;28;19918;-62
2022/11/12 08:14:28;;;;;;;;;;;;;;;;;;5015693;28;20398;-63
2022/11/12 08:16:53;;;;;;;;;;;;;;;;;;5023446;28;19968;-70
2022/11/12 08:19:19;;;;;;;;;;;;;;;;;;5009717;28;20012;-72
2022/11/12 08:21:45;;;;;;;;;;;;;;;;;;5011374;28;19914;-71
2022/11/12 08:24:11;;;;;;;;;;;;;;;;;;4993458;28;19968;-80
2022/11/12 08:26:37;;;;;;;;;;;;;;;;;;5021375;28;19913;-80
2022/11/12 08:29:04;;;;;;;;;;;;;;;;;;5025663;28;19968;-81
2022/11/12 08:31:30;;;;;;;;;;;;;;;;;;5017810;28;19920;-81
2022/11/12 08:33:56;;;;;;;;;;;;;;;;;;5012132;28;20287;-79
2022/11/12 08:36:22;;;;;;;;;;;;;;;;;;5011748;28;19939;-80
2022/11/12 08:38:48;;;;;;;;;;;;;;;;;;5009109;28;19922;-81
2022/11/12 08:41:14;;;;;;;;;;;;;;;;;;5019669;28;19917;-80
2022/11/12 08:43:39;;;;;;;;;;;;;;;;;;5020644;28;20386;-80
2022/11/12 08:46:05;;;;;;;;;;;;;;;;;;5010160;28;19909;-78
2022/11/12 08:48:31;;;;;;;;;;;;;;;;;;5005230;28;19917;-82
2022/11/12 08:50:57;;;;;;;;;;;;;;;;;;5004756;28;20510;-83
2022/11/12 08:53:23;;;;;;;;;;;;;;;;;;5003126;28;20012;-79
2022/11/12 08:55:49;;;;;;;;;;;;;;;;;;5004609;28;19928;-81
2022/11/12 08:58:15;;;;;;;;;;;;;;;;;;5005470;28;19948;-81
2022/11/12 09:00:41;;;;;;;;;;;;;;;;;;5005065;28;19959;-78
2022/11/12 09:03:07;;;;;;;;;;;;;;;;;;4998098;28;19957;-81
2022/11/12 09:05:33;;;;;;;;;;;;;;;;;;5005665;28;20302;-80
2022/11/12 09:07:59;;;;;;;;;;;;;;;;;;4998783;28;20382;-77
2022/11/12 09:10:25;;;;;;;;;;;;;;;;;;5001956;28;19964;-80
2022/11/12 09:12:51;;;;;;;;;;;;;;;;;;5002648;28;19944;-71
2022/11/12 09:15:17;;;;;;;;;;;;;;;;;;5007627;28;19929;-79
2022/11/12 09:17:43;;;;;;;;;;;;;;;;;;5002045;28;19918;-78
2022/11/12 09:20:09;;;;;;;;;;;;;;;;;;5005170;28;19960;-79
2022/11/12 09:22:35;;;;;;;;;;;;;;;;;;5003270;28;19917;-79
2022/11/12 09:25:00;;;;;;;;;;;;;;;;;;4979529;28;20377;-79
2022/11/12 09:27:26;;;;;;;;;;;;;;;;;;5003492;28;19917;-76
2022/11/12 09:29:52;;;;;;;;;;;;;;;;;;5004009;28;19979;-78
2022/11/12 09:32:18;;;;;;;;;;;;;;;;;;5003944;28;20385;-79
2022/11/12 09:34:44;;;;;;;;;;;;;;;;;;5004455;28;19924;-78
2022/11/12 09:37:10;;;;;;;;;;;;;;;;;;5009818;28;19948;-73
2022/11/12 09:39:36;;;;;;;;;;;;;;;;;;5000160;28;19917;-76
2022/11/12 09:42:02;;;;;;;;;;;;;;;;;;5004106;28;19979;-77
2022/11/12 09:44:27;;;;;;;;;;;;;;;;;;5002097;28;19922;-79
2022/11/12 09:46:53;;;;;;;;;;;;;;;;;;5004994;28;19921;-78
2022/11/12 09:49:19;;;;;;;;;;;;;;;;;;5000659;28;19917;-79
2022/11/12 09:51:45;;;;;;;;;;;;;;;;;;4991151;28;19925;-77
2022/11/12 09:54:12;;;;;;;;;;;;;;;;;;5000499;28;19924;-77
2022/11/12 09:56:38;;;;;;;;;;;;;;;;;;5002414;28;19929;-79
2022/11/12 09:59:04;;;;;;;;;;;;;;;;;;4984391;28;19918;-76
2022/11/12 10:01:30;;;;;;;;;;;;;;;;;;5002165;28;20015;-78
2022/11/12 10:03:56;;;;;;;;;;;;;;;;;;5004357;28;19925;-78
2022/11/12 10:06:21;;;;;;;;;;;;;;;;;;5010604;28;20275;-80
2022/11/12 10:08:47;;;;;;;;;;;;;;;;;;5002267;28;20012;-79
2022/11/12 10:11:13;;;;;;;;;;;;;;;;;;4999586;28;19918;-80
2022/11/12 10:13:39;;;;;;;;;;;;;;;;;;5003012;28;19921;-81
2022/11/12 10:18:49;;;;;;;;;;;;;;;;;;5003403;28;19956;-80
2022/11/12 10:21:15;;;;;;;;;;;;;;;;;;4997186;28;19961;-82
2022/11/12 10:23:41;;;;;;;;;;;;;;;;;;4990794;28;19917;-81
2022/11/12 10:26:07;;;;;;;;;;;;;;;;;;4999956;28;19914;-80
2022/11/12 10:28:33;;;;;;;;;;;;;;;;;;5003468;28;19993;-81
2022/11/12 10:30:59;;;;;;;;;;;;;;;;;;5001732;28;20411;-81
2022/11/12 10:33:25;;;;;;;;;;;;;;;;;;5002243;28;19976;-82
2022/11/12 10:35:51;;;;;;;;;;;;;;;;;;5003874;28;20653;-81
2022/11/12 10:38:16;;;;;;;;;;;;;;;;;;5004774;28;19921;-80
2022/11/12 10:40:42;;;;;;;;;;;;;;;;;;5001444;28;20001;-80
2022/11/12 10:43:08;;;;;;;;;;;;;;;;;;5004364;28;19913;-81
2022/11/12 10:45:34;;;;;;;;;;;;;;;;;;5009258;28;19967;-81
2022/11/12 10:48:00;;;;;;;;;;;;;;;;;;5013048;28;19967;-81
2022/11/12 10:50:26;;;;;;;;;;;;;;;;;;5009679;28;19957;-81
2022/11/12 10:52:52;;;;;;;;;;;;;;;;;;5026763;28;19921;-81
2022/11/12 10:55:18;;;;;;;;;;;;;;;;;;5018401;28;20156;-81
2022/11/12 10:57:44;;;;;;;;;;;;;;;;;;5014186;28;19910;-80
2022/11/12 11:00:09;;;;;;;;;;;;;;;;;;5029153;28;20336;-80
2022/11/12 11:02:35;;;;;;;;;;;;;;;;;;5028996;28;20011;-80
2022/11/12 11:05:01;;;;;;;;;;;;;;;;;;5028535;28;19913;-80
2022/11/12 11:07:27;;;;;;;;;;;;;;;;;;5028854;28;19999;-81
2022/11/12 11:09:53;;;;;;;;;;;;;;;;;;5028849;28;19928;-80
2022/11/12 11:12:19;;;;;;;;;;;;;;;;;;5022233;28;20336;-81
2022/11/12 11:14:45;;;;;;;;;;;;;;;;;;5024115;28;20000;-80
2022/11/12 11:17:11;;;;;;;;;;;;;;;;;;5020552;28;19913;-80
2022/11/12 11:19:37;;;;;;;;;;;;;;;;;;5031635;28;20309;-80
2022/11/12 11:22:02;;;;;;;;;;;;;;;;;;5025487;28;19910;-80
2022/11/12 11:24:28;;;;;;;;;;;;;;;;;;5015704;28;19913;-80
2022/11/12 11:26:54;;;;;;;;;;;;;;;;;;5014280;28;20329;-80
2022/11/12 11:29:20;;;;;;;;;;;;;;;;;;5032540;28;19955;-79
2022/11/12 11:31:46;;;;;;;;;;;;;;;;;;5019294;28;19980;-81
2022/11/12 11:34:12;;;;;;;;;;;;;;;;;;5012750;28;19928;-80
2022/11/12 11:36:38;;;;;;;;;;;;;;;;;;5013470;28;20004;-80
2022/11/12 11:39:04;;;;;;;;;;;;;;;;;;5013061;28;19916;-80
2022/11/12 11:41:30;;;;;;;;;;;;;;;;;;5029946;28;19917;-80
2022/11/12 11:43:56;;;;;;;;;;;;;;;;;;5013299;28;19913;-80
2022/11/12 11:46:22;;;;;;;;;;;;;;;;;;5013185;28;19910;-79
2022/11/12 11:48:48;;;;;;;;;;;;;;;;;;5013255;28;19919;-81
2022/11/12 11:51:14;;;;;;;;;;;;;;;;;;5024980;28;19913;-80
2022/11/12 11:53:40;;;;;;;;;;;;;;;;;;5032117;28;19925;-80
2022/11/12 11:56:06;;;;;;;;;;;;;;;;;;5027435;28;19920;-80
2022/11/12 11:58:31;;;;;;;;;;;;;;;;;;5012896;28;19914;-79
2022/11/12 12:00:57;;;;;;;;;;;;;;;;;;5012348;28;20548;-80
2022/11/12 12:03:25;;;;;;;;;;;;;;;;;;5011723;28;19945;-79
2022/11/12 12:05:51;;;;;;;;;;;;;;;;;;5022199;28;19909;-78
2022/11/12 12:08:17;;;;;;;;;;;;;;;;;;5030666;28;19928;-78
2022/11/12 12:10:43;;;;;;;;;;;;;;;;;;5030823;28;19917;-80
2022/11/12 12:13:08;;;;;;;;;;;;;;;;;;5030874;28;19940;-80
2022/11/12 12:15:34;;;;;;;;;;;;;;;;;;5022815;28;19921;-80
2022/11/12 12:18:02;;;;;;;;;;;;;;;;;;5013975;28;19914;-79
2022/11/12 12:20:29;;;;;;;;;;;;;;;;;;5030763;28;20389;-80
2022/11/12 12:22:55;;;;;;;;;;;;;;;;;;5026878;28;19959;-80
2022/11/12 12:25:21;;;;;;;;;;;;;;;;;;5032065;28;19909;-79
2022/11/12 12:27:47;;;;;;;;;;;;;;;;;;5030899;28;20358;-80
2022/11/12 12:30:13;;;;;;;;;;;;;;;;;;5031649;28;19913;-80
2022/11/12 12:32:39;;;;;;;;;;;;;;;;;;5013479;28;19976;-80
2022/11/12 12:35:05;;;;;;;;;;;;;;;;;;5011623;28;19910;-82
2022/11/12 12:37:30;;;;;;;;;;;;;;;;;;5018729;28;19917;-80
2022/11/12 12:39:56;;;;;;;;;;;;;;;;;;5019020;28;19920;-81
2022/11/12 12:42:22;;;;;;;;;;;;;;;;;;5024213;28;20024;-80
2022/11/12 12:45:02;;;;;;;;;;;;;;;;;;5011925;28;19980;-80
2022/11/12 12:47:28;;;;;;;;;;;;;;;;;;5009173;28;19917;-80
2022/11/12 12:49:54;;;;;;;;;;;;;;;;;;5032475;28;19919;-81
2022/11/12 12:52:19;;;;;;;;;;;;;;;;;;5030910;28;20371;-81
2022/11/12 12:54:46;;;;;;;;;;;;;;;;;;5028541;28;19909;-80
2022/11/12 12:57:12;;;;;;;;;;;;;;;;;;5012302;28;20308;-81
2022/11/12 12:59:37;;;;;;;;;;;;;;;;;;5012972;28;19996;-80
2022/11/12 13:02:03;;;;;;;;;;;;;;;;;;5011414;28;19913;-80
2022/11/12 13:04:29;;;;;;;;;;;;;;;;;;5006672;28;20432;-81
2022/11/12 13:06:55;;;;;;;;;;;;;;;;;;5011473;28;19920;-81
2022/11/12 13:09:22;;;;;;;;;;;;;;;;;;5012308;28;20435;-80
2022/11/12 13:14:29;;;;;;;;;;;;;;;;;;5010849;28;19910;-79
2022/11/12 13:16:55;;;;;;;;;;;;;;;;;;5023847;28;19913;-77
2022/11/12 13:19:21;;;;;;;;;;;;;;;;;;5029272;28;19921;-79
2022/11/12 13:21:47;;;;;;;;;;;;;;;;;;5027198;28;19913;-76
2022/11/12 13:24:13;;;;;;;;;;;;;;;;;;5023261;28;19921;-77
2022/11/12 13:26:39;;;;;;;;;;;;;;;;;;5026232;28;19982;-78
2022/11/12 13:29:04;;;;;;;;;;;;;;;;;;5029402;28;19918;-77
2022/11/12 13:31:32;;;;;;;;;;;;;;;;;;5023633;28;19928;-77
2022/11/12 13:33:58;;;;;;;;;;;;;;;;;;5029650;28;20019;-77
2022/11/12 13:36:24;;;;;;;;;;;;;;;;;;5017342;28;20322;-77
2022/11/12 13:38:50;;;;;;;;;;;;;;;;;;5009230;28;19992;-77
2022/11/12 13:41:16;;;;;;;;;;;;;;;;;;5028215;28;19967;-76
2022/11/12 13:43:42;;;;;;;;;;;;;;;;;;5028742;28;19909;-79
2022/11/12 13:46:09;;;;;;;;;;;;;;;;;;5029306;28;20278;-78
2022/11/12 13:48:35;;;;;;;;;;;;;;;;;;5012056;28;19914;-79
2022/11/12 13:51:01;;;;;;;;;;;;;;;;;;5027183;28;19909;-78
2022/11/12 13:53:27;;;;;;;;;;;;;;;;;;5025892;28;19928;-77
2022/11/12 13:55:53;;;;;;;;;;;;;;;;;;5013539;28;19909;-79
2022/11/12 13:58:19;;;;;;;;;;;;;;;;;;5028930;28;19972;-77
2022/11/12 14:00:45;;;;;;;;;;;;;;;;;;4993725;28;19914;-78
2022/11/12 14:03:11;;;;;;;;;;;;;;;;;;5012359;28;20463;-78
2022/11/12 14:05:38;;;;;;;;;;;;;;;;;;5019705;28;19909;-78
2022/11/12 14:08:04;;;;;;;;;;;;;;;;;;5009878;28;20000;-78
2022/11/12 14:10:30;;;;;;;;;;;;;;;;;;5009485;28;19913;-79
2022/11/12 14:12:56;;;;;;;;;;;;;;;;;;5010990;28;19925;-76
2022/11/12 14:15:22;;;;;;;;;;;;;;;;;;4993006;28;19913;-77
2022/11/12 14:17:48;;;;;;;;;;;;;;;;;;5001953;28;20008;-77
2022/11/12 14:20:14;;;;;;;;;;;;;;;;;;5000707;28;19989;-80
2022/11/12 14:22:40;;;;;;;;;;;;;;;;;;5003458;28;19965;-79
2022/11/12 14:25:06;;;;;;;;;;;;;;;;;;5002537;28;20349;-79
2022/11/12 14:27:32;;;;;;;;;;;;;;;;;;5003474;28;19925;-77
2022/11/12 14:29:58;;;;;;;;;;;;;;;;;;4998115;28;19913;-78
2022/11/12 14:32:24;;;;;;;;;;;;;;;;;;5004198;28;20031;-77
2022/11/12 14:34:50;;;;;;;;;;;;;;;;;;4999399;28;19990;-77
2022/11/12 14:37:16;;;;;;;;;;;;;;;;;;5001199;28;19945;-76
2022/11/12 14:39:42;;;;;;;;;;;;;;;;;;5000742;28;19939;-77
2022/11/12 14:42:07;;;;;;;;;;;;;;;;;;4982937;28;19949;-78
2022/11/12 14:44:33;;;;;;;;;;;;;;;;;;5002087;28;20013;-75
2022/11/12 14:46:59;;;;;;;;;;;;;;;;;;5004272;28;19914;-76
2022/11/12 14:49:25;;;;;;;;;;;;;;;;;;5002178;28;20370;-77
2022/11/12 14:51:51;;;;;;;;;;;;;;;;;;5004585;28;20017;-78
2022/11/12 14:54:17;;;;;;;;;;;;;;;;;;5005778;28;20563;-78
2022/11/12 14:56:43;;;;;;;;;;;;;;;;;;5007521;28;19924;-71
2022/11/12 14:59:09;;;;;;;;;;;;;;;;;;5006316;28;19917;-79
2022/11/12 15:01:35;;;;;;;;;;;;;;;;;;5002419;28;19960;-77
2022/11/12 15:04:00;;;;;;;;;;;;;;;;;;5012008;28;19925;-78
2022/11/12 15:06:26;;;;;;;;;;;;;;;;;;5005163;28;19918;-77
2022/11/12 15:08:52;;;;;;;;;;;;;;;;;;5007110;28;19978;-75
2022/11/12 15:11:18;;;;;;;;;;;;;;;;;;5005041;28;19917;-77
2022/11/12 15:13:44;;;;;;;;;;;;;;;;;;5006089;28;19936;-78
2022/11/12 15:16:10;;;;;;;;;;;;;;;;;;5007415;28;19918;-77
2022/11/12 15:18:36;;;;;;;;;;;;;;;;;;5006391;28;19921;-77
2022/11/12 15:21:02;;;;;;;;;;;;;;;;;;5005700;28;19924;-75
2022/11/12 15:23:28;;;;;;;;;;;;;;;;;;5003285;28;19952;-77
2022/11/12 15:25:54;;;;;;;;;;;;;;;;;;5005179;28;19918;-77
2022/11/12 15:28:19;;;;;;;;;;;;;;;;;;5004926;28;19929;-78
2022/11/12 15:30:45;;;;;;;;;;;;;;;;;;5006042;28;20387;-78
2022/11/12 15:33:11;;;;;;;;;;;;;;;;;;5010963;28;19929;-77
2022/11/12 15:35:38;;;;;;;;;;;;;;;;;;5005636;28;20111;-76
2022/11/12 15:38:04;;;;;;;;;;;;;;;;;;5009016;28;19921;-74
2022/11/12 15:40:29;;;;;;;;;;;;;;;;;;5007028;28;19917;-77
2022/11/12 15:42:55;;;;;;;;;;;;;;;;;;5004831;28;20358;-77
2022/11/12 15:45:21;;;;;;;;;;;;;;;;;;5011199;28;20023;-76
2022/11/12 15:47:47;;;;;;;;;;;;;;;;;;5003559;28;20334;-78
2022/11/12 15:50:13;;;;;;;;;;;;;;;;;;5006369;28;19925;-77
2022/11/12 15:52:39;;;;;;;;;;;;;;;;;;5004694;28;20373;-76
2022/11/12 15:55:05;;;;;;;;;;;;;;;;;;5007466;28;19918;-77
2022/11/12 15:57:31;;;;;;;;;;;;;;;;;;5004700;28;20023;-76
2022/11/12 15:59:56;;;;;;;;;;;;;;;;;;5008132;28;19920;-78
2022/11/12 16:02:22;;;;;;;;;;;;;;;;;;5003336;28;19918;-78
2022/11/12 16:04:48;;;;;;;;;;;;;;;;;;5008681;28;19924;-77
2022/11/12 16:07:14;;;;;;;;;;;;;;;;;;5005894;28;19918;-80
2022/11/12 16:09:40;;;;;;;;;;;;;;;;;;5005186;28;20653;-76
2022/11/12 16:12:06;;;;;;;;;;;;;;;;;;4991592;28;19931;-78
2022/11/12 16:14:32;;;;;;;;;;;;;;;;;;5005277;28;19960;-77
2022/11/12 16:16:58;;;;;;;;;;;;;;;;;;5007019;28;20020;-76
2022/11/12 16:19:25;;;;;;;;;;;;;;;;;;5004598;28;20301;-75
2022/11/12 16:21:51;;;;;;;;;;;;;;;;;;5008427;28;20286;-76
2022/11/12 16:24:16;;;;;;;;;;;;;;;;;;5006214;28;19917;-76
2022/11/12 16:26:42;;;;;;;;;;;;;;;;;;5006119;28;20000;-75
2022/11/12 16:29:08;;;;;;;;;;;;;;;;;;5006460;28;20004;-76
2022/11/12 16:31:34;;;;;;;;;;;;;;;;;;5007084;28;19917;-77
2022/11/12 16:34:00;;;;;;;;;;;;;;;;;;5002494;28;19928;-76
2022/11/12 16:36:26;;;;;;;;;;;;;;;;;;5007152;28;19920;-75
2022/11/12 16:38:52;;;;;;;;;;;;;;;;;;5005325;28;19983;-76
2022/11/12 16:41:18;;;;;;;;;;;;;;;;;;5003160;28;19913;-75
2022/11/12 16:43:44;;;;;;;;;;;;;;;;;;5000848;28;19932;-77
2022/11/12 16:46:09;;;;;;;;;;;;;;;;;;5008527;28;19996;-75
2022/11/12 16:48:36;;;;;;;;;;;;;;;;;;5005623;28;19913;-77
2022/11/12 16:51:02;;;;;;;;;;;;;;;;;;5005637;28;20325;-76
2022/11/12 16:53:29;;;;;;;;;;;;;;;;;;5004372;28;19930;-79
2022/11/12 16:55:55;;;;;;;;;;;;;;;;;;5002517;28;20378;-79
2022/11/12 16:58:21;;;;;;;;;;;;;;;;;;5006636;28;19996;-76
2022/11/12 17:00:48;;;;;;;;;;;;;;;;;;5005779;28;19917;-76
2022/11/12 17:03:14;;;;;;;;;;;;;;;;;;5004027;28;19909;-75